Carbon, Iowa
Current Conditions -  °F | °C
As of 8:15 AM on Thursday 27 Nov 2014 (Local Time) from KRDK Reporting Station
Overcast Overcast  
Wind Chill:   Ceiling: 8500
Heat Index: 14°   Visibility: 10mi
Dew Point:   Wind: 8mph
Humidity: 67%   Direction: 30°NNE
Pressure: 30.53"   Gusts: NA
Location:  41.05°N, 94.82°W
Report Text: KRDK 271415Z AUTO 03007KT 10SM OVC085 M10/M15 A3053 RMK AO2
Loading
Personal Weather Stations






























Interactive Weather Map New forecast layout! Learn more

10-Day Weather Forecast

Advertisements
Track Severe Weather on mobile